sensor_id;sensor_type;location;lat;lon;timestamp;pressure;altitude;pressure_sealevel;temperature;humidity
37202;BME280;37799;52.390;6.136;2023-05-20T00:00:10;102528.19;;;9.60;100.00
37202;BME280;37799;52.390;6.136;2023-05-20T00:02:35;102529.06;;;9.62;100.00
37202;BME280;37799;52.390;6.136;2023-05-20T00:05:01;102521.31;;;9.62;100.00
37202;BME280;37799;52.390;6.136;2023-05-20T00:07:26;102524.75;;;9.58;100.00
37202;BME280;37799;52.390;6.136;2023-05-20T00:09:52;102529.91;;;9.58;100.00
37202;BME280;37799;52.390;6.136;2023-05-20T00:12:17;102535.94;;;9.60;100.00
37202;BME280;37799;52.390;6.136;2023-05-20T00:14:43;102535.16;;;9.73;100.00
37202;BME280;37799;52.390;6.136;2023-05-20T00:17:08;102523.94;;;9.68;100.00
37202;BME280;37799;52.390;6.136;2023-05-20T00:19:33;102523.09;;;9.72;100.00
37202;BME280;37799;52.390;6.136;2023-05-20T00:21:59;102527.41;;;9.71;100.00
37202;BME280;37799;52.390;6.136;2023-05-20T00:24:26;102526.53;;;9.72;100.00
37202;BME280;37799;52.390;6.136;2023-05-20T00:26:51;102522.28;;;9.82;100.00
37202;BME280;37799;52.390;6.136;2023-05-20T00:29:18;102530.91;;;9.86;100.00
37202;BME280;37799;52.390;6.136;2023-05-20T00:31:43;102519.69;;;9.82;100.00
37202;BME280;37799;52.390;6.136;2023-05-20T00:34:09;102524.00;;;9.82;100.00
37202;BME280;37799;52.390;6.136;2023-05-20T00:36:34;102522.28;;;9.81;100.00
37202;BME280;37799;52.390;6.136;2023-05-20T00:39:00;102517.97;;;9.81;100.00
37202;BME280;37799;52.390;6.136;2023-05-20T00:41:26;102517.94;;;9.78;100.00
37202;BME280;37799;52.390;6.136;2023-05-20T00:43:55;102519.69;;;9.79;100.00
37202;BME280;37799;52.390;6.136;2023-05-20T00:46:25;102519.63;;;9.68;100.00
37202;BME280;37799;52.390;6.136;2023-05-20T00:48:50;102522.22;;;9.68;100.00
37202;BME280;37799;52.390;6.136;2023-05-20T00:51:16;102517.03;;;9.71;100.00
37202;BME280;37799;52.390;6.136;2023-05-20T00:53:42;102510.16;;;9.70;100.00
37202;BME280;37799;52.390;6.136;2023-05-20T00:56:08;102511.88;;;9.67;100.00
37202;BME280;37799;52.390;6.136;2023-05-20T00:58:34;102507.50;;;9.57;100.00
37202;BME280;37799;52.390;6.136;2023-05-20T01:01:01;102505.78;;;9.57;100.00
37202;BME280;37799;52.390;6.136;2023-05-20T01:03:27;102504.91;;;9.54;100.00
37202;BME280;37799;52.390;6.136;2023-05-20T01:05:52;102508.34;;;9.53;100.00
37202;BME280;37799;52.390;6.136;2023-05-20T01:08:18;102513.47;;;9.50;100.00
37202;BME280;37799;52.390;6.136;2023-05-20T01:10:45;102507.50;;;9.57;100.00
37202;BME280;37799;52.390;6.136;2023-05-20T01:13:20;102510.03;;;9.48;100.00
37202;BME280;37799;52.390;6.136;2023-05-20T01:15:47;102515.19;;;9.46;100.00
37202;BME280;37799;52.390;6.136;2023-05-20T01:18:13;102500.53;;;9.43;100.00
37202;BME280;37799;52.390;6.136;2023-05-20T01:20:42;102502.25;;;9.38;100.00
37202;BME280;37799;52.390;6.136;2023-05-20T01:23:10;102495.28;;;9.31;100.00
37202;BME280;37799;52.390;6.136;2023-05-20T01:25:35;102498.75;;;9.30;100.00
37202;BME280;37799;52.390;6.136;2023-05-20T01:28:00;102490.94;;;9.23;100.00
37202;BME280;37799;52.390;6.136;2023-05-20T01:30:29;102497.00;;;9.26;100.00
37202;BME280;37799;52.390;6.136;2023-05-20T01:33:01;102489.19;;;9.20;100.00
37202;BME280;37799;52.390;6.136;2023-05-20T01:35:29;102489.25;;;9.32;100.00
37202;BME280;37799;52.390;6.136;2023-05-20T01:37:56;102492.69;;;9.25;100.00
37202;BME280;37799;52.390;6.136;2023-05-20T01:40:23;102489.25;;;9.28;100.00
37202;BME280;37799;52.390;6.136;2023-05-20T01:42:49;102484.06;;;9.25;100.00
37202;BME280;37799;52.390;6.136;2023-05-20T01:45:18;102486.66;;;9.28;100.00
37202;BME280;37799;52.390;6.136;2023-05-20T01:47:47;102485.81;;;9.33;100.00
37202;BME280;37799;52.390;6.136;2023-05-20T01:50:12;102477.22;;;9.37;100.00
37202;BME280;37799;52.390;6.136;2023-05-20T01:52:37;102479.81;;;9.37;100.00
37202;BME280;37799;52.390;6.136;2023-05-20T01:55:03;102477.22;;;9.37;100.00
37202;BME280;37799;52.390;6.136;2023-05-20T01:57:28;102466.00;;;9.35;100.00
37202;BME280;37799;52.390;6.136;2023-05-20T01:59:54;102476.34;;;9.34;100.00
37202;BME280;37799;52.390;6.136;2023-05-20T02:02:19;102477.22;;;9.34;100.00
37202;BME280;37799;52.390;6.136;2023-05-20T02:04:46;102474.63;;;9.37;100.00
37202;BME280;37799;52.390;6.136;2023-05-20T02:07:13;102471.22;;;9.41;100.00
37202;BME280;37799;52.390;6.136;2023-05-20T02:09:38;102471.25;;;9.46;100.00
37202;BME280;37799;52.390;6.136;2023-05-20T02:12:05;102467.78;;;9.44;100.00
37202;BME280;37799;52.390;6.136;2023-05-20T02:14:30;102482.44;;;9.45;100.00
37202;BME280;37799;52.390;6.136;2023-05-20T02:16:56;102469.50;;;9.43;100.00
37202;BME280;37799;52.390;6.136;2023-05-20T02:19:21;102469.50;;;9.43;100.00
37202;BME280;37799;52.390;6.136;2023-05-20T02:21:48;102475.53;;;9.41;100.00
37202;BME280;37799;52.390;6.136;2023-05-20T02:24:13;102474.69;;;9.46;100.00
37202;BME280;37799;52.390;6.136;2023-05-20T02:26:39;102475.53;;;9.45;100.00
37202;BME280;37799;52.390;6.136;2023-05-20T02:29:04;102466.91;;;9.43;100.00
37202;BME280;37799;52.390;6.136;2023-05-20T02:31:29;102476.41;;;9.44;100.00
37202;BME280;37799;52.390;6.136;2023-05-20T02:33:55;102464.41;;;9.56;100.00
37202;BME280;37799;52.390;6.136;2023-05-20T02:36:20;102473.06;;;9.73;100.00
37202;BME280;37799;52.390;6.136;2023-05-20T02:38:45;102470.47;;;9.70;100.00
37202;BME280;37799;52.390;6.136;2023-05-20T02:41:11;102465.31;;;9.64;100.00
37202;BME280;37799;52.390;6.136;2023-05-20T02:43:36;102462.72;;;9.74;100.00
37202;BME280;37799;52.390;6.136;2023-05-20T02:46:02;102459.31;;;9.80;100.00
37202;BME280;37799;52.390;6.136;2023-05-20T02:48:27;102467.06;;;9.80;100.00
37202;BME280;37799;52.390;6.136;2023-05-20T02:50:54;102455.88;;;9.81;100.00
37202;BME280;37799;52.390;6.136;2023-05-20T02:53:19;102454.16;;;9.83;100.00
37202;BME280;37799;52.390;6.136;2023-05-20T02:55:45;102449.88;;;9.96;100.00
37202;BME280;37799;52.390;6.136;2023-05-20T02:58:14;102447.28;;;9.94;100.00
37202;BME280;37799;52.390;6.136;2023-05-20T03:00:40;102449.00;;;9.98;100.00
37202;BME280;37799;52.390;6.136;2023-05-20T03:03:06;102449.88;;;10.02;100.00
37202;BME280;37799;52.390;6.136;2023-05-20T03:05:32;102446.44;;;10.03;100.00
37202;BME280;37799;52.390;6.136;2023-05-20T03:07:57;102451.63;;;10.09;100.00
37202;BME280;37799;52.390;6.136;2023-05-20T03:10:23;102453.34;;;10.09;100.00
37202;BME280;37799;52.390;6.136;2023-05-20T03:12:48;102447.31;;;10.10;100.00
37202;BME280;37799;52.390;6.136;2023-05-20T03:15:13;102443.84;;;10.12;100.00
37202;BME280;37799;52.390;6.136;2023-05-20T03:17:39;102444.72;;;10.14;100.00
37202;BME280;37799;52.390;6.136;2023-05-20T03:20:05;102444.75;;;10.16;100.00
37202;BME280;37799;52.390;6.136;2023-05-20T03:22:31;102450.75;;;10.13;100.00
37202;BME280;37799;52.390;6.136;2023-05-20T03:24:56;102455.13;;;10.23;100.00
37202;BME280;37799;52.390;6.136;2023-05-20T03:27:22;102449.94;;;10.25;100.00
37202;BME280;37799;52.390;6.136;2023-05-20T03:29:50;102455.13;;;10.28;100.00
37202;BME280;37799;52.390;6.136;2023-05-20T03:32:19;102458.59;;;10.33;100.00
37202;BME280;37799;52.390;6.136;2023-05-20T03:34:45;102463.78;;;10.30;100.00
37202;BME280;37799;52.390;6.136;2023-05-20T03:37:10;102459.44;;;10.38;100.00
37202;BME280;37799;52.390;6.136;2023-05-20T03:39:35;102457.72;;;10.40;100.00
37202;BME280;37799;52.390;6.136;2023-05-20T03:42:01;102459.47;;;10.43;100.00
37202;BME280;37799;52.390;6.136;2023-05-20T03:44:26;102464.66;;;10.44;100.00
37202;BME280;37799;52.390;6.136;2023-05-20T03:46:51;102466.38;;;10.44;100.00
37202;BME280;37799;52.390;6.136;2023-05-20T03:49:16;102459.44;;;10.41;100.00
37202;BME280;37799;52.390;6.136;2023-05-20T03:51:42;102465.50;;;10.45;100.00
37202;BME280;37799;52.390;6.136;2023-05-20T03:54:07;102474.13;;;10.53;100.00
37202;BME280;37799;52.390;6.136;2023-05-20T03:56:32;102477.59;;;10.61;100.00
37202;BME280;37799;52.390;6.136;2023-05-20T03:58:58;102466.38;;;10.56;100.00
37202;BME280;37799;52.390;6.136;2023-05-20T04:01:23;102464.66;;;10.55;100.00
37202;BME280;37799;52.390;6.136;2023-05-20T04:03:50;102463.78;;;10.45;100.00
37202;BME280;37799;52.390;6.136;2023-05-20T04:06:15;102467.22;;;10.41;100.00
37202;BME280;37799;52.390;6.136;2023-05-20T04:08:40;102475.84;;;10.36;100.00
37202;BME280;37799;52.390;6.136;2023-05-20T04:11:06;102468.06;;;10.22;100.00
37202;BME280;37799;52.390;6.136;2023-05-20T04:13:32;102468.03;;;10.19;100.00
37202;BME280;37799;52.390;6.136;2023-05-20T04:15:57;102474.03;;;10.15;100.00
37202;BME280;37799;52.390;6.136;2023-05-20T04:18:22;102468.88;;;10.10;100.00
37202;BME280;37799;52.390;6.136;2023-05-20T04:20:48;102473.19;;;10.07;100.00
37202;BME280;37799;52.390;6.136;2023-05-20T04:23:14;102467.97;;;10.00;100.00
37202;BME280;37799;52.390;6.136;2023-05-20T04:25:39;102466.25;;;9.96;100.00
37202;BME280;37799;52.390;6.136;2023-05-20T04:28:08;102463.66;;;9.93;100.00
37202;BME280;37799;52.390;6.136;2023-05-20T04:30:34;102467.13;;;9.92;100.00
37202;BME280;37799;52.390;6.136;2023-05-20T04:33:00;102467.13;;;9.94;100.00
37202;BME280;37799;52.390;6.136;2023-05-20T04:35:27;102464.50;;;9.89;100.00
37202;BME280;37799;52.390;6.136;2023-05-20T04:37:53;102478.28;;;9.88;100.00
37202;BME280;37799;52.390;6.136;2023-05-20T04:40:19;102474.84;;;9.85;100.00
37202;BME280;37799;52.390;6.136;2023-05-20T04:42:45;102480.88;;;9.84;100.00
37202;BME280;37799;52.390;6.136;2023-05-20T04:45:10;102471.38;;;9.81;100.00
37202;BME280;37799;52.390;6.136;2023-05-20T04:47:37;102478.28;;;9.84;100.00
37202;BME280;37799;52.390;6.136;2023-05-20T04:50:06;102477.44;;;9.89;100.00
37202;BME280;37799;52.390;6.136;2023-05-20T04:52:35;102471.44;;;9.93;100.00
37202;BME280;37799;52.390;6.136;2023-05-20T04:55:00;102466.25;;;9.96;100.00
37202;BME280;37799;52.390;6.136;2023-05-20T04:57:26;102469.75;;;10.04;100.00
37202;BME280;37799;52.390;6.136;2023-05-20T04:59:51;102470.59;;;10.07;100.00
37202;BME280;37799;52.390;6.136;2023-05-20T05:02:16;102473.22;;;10.19;100.00
37202;BME280;37799;52.390;6.136;2023-05-20T05:04:42;102476.66;;;10.18;100.00
37202;BME280;37799;52.390;6.136;2023-05-20T05:07:07;102474.09;;;10.25;100.00
37202;BME280;37799;52.390;6.136;2023-05-20T05:09:32;102481.91;;;10.36;100.00
37202;BME280;37799;52.390;6.136;2023-05-20T05:11:58;102477.59;;;10.52;100.00
37202;BME280;37799;52.390;6.136;2023-05-20T05:14:23;102481.03;;;10.54;100.00
37202;BME280;37799;52.390;6.136;2023-05-20T05:16:48;102471.53;;;10.63;100.00
37202;BME280;37799;52.390;6.136;2023-05-20T05:19:14;102485.34;;;10.90;100.00
37202;BME280;37799;52.390;6.136;2023-05-20T05:21:40;102481.88;;;11.00;100.00
37202;BME280;37799;52.390;6.136;2023-05-20T05:24:06;102474.00;;;11.41;100.00
37202;BME280;37799;52.390;6.136;2023-05-20T05:26:32;102478.06;;;12.06;100.00
37202;BME280;37799;52.390;6.136;2023-05-20T05:28:57;102470.56;;;12.83;100.00
37202;BME280;37799;52.390;6.136;2023-05-20T05:31:22;102468.19;;;13.46;100.00
37202;BME280;37799;52.390;6.136;2023-05-20T05:33:48;102477.00;;;14.02;100.00
37202;BME280;37799;52.390;6.136;2023-05-20T05:36:14;102479.06;;;14.39;100.00
37202;BME280;37799;52.390;6.136;2023-05-20T05:38:39;102480.84;;;14.91;100.00
37202;BME280;37799;52.390;6.136;2023-05-20T05:41:05;102485.13;;;15.40;100.00
37202;BME280;37799;52.390;6.136;2023-05-20T05:43:30;102474.84;;;15.75;100.00
37202;BME280;37799;52.390;6.136;2023-05-20T05:45:55;102486.53;;;15.98;100.00
37202;BME280;37799;52.390;6.136;2023-05-20T05:48:21;102480.31;;;16.40;100.00
37202;BME280;37799;52.390;6.136;2023-05-20T05:50:47;102491.78;;;16.72;100.00
37202;BME280;37799;52.390;6.136;2023-05-20T05:53:12;102489.13;;;16.73;100.00
37202;BME280;37799;52.390;6.136;2023-05-20T05:55:37;102490.66;;;17.15;100.00
37202;BME280;37799;52.390;6.136;2023-05-20T05:58:03;102481.13;;;17.43;100.00
37202;BME280;37799;52.390;6.136;2023-05-20T06:00:28;102488.94;;;17.45;100.00
37202;BME280;37799;52.390;6.136;2023-05-20T06:02:53;102487.44;;;17.67;100.00
37202;BME280;37799;52.390;6.136;2023-05-20T06:05:19;102491.63;;;17.74;100.00
37202;BME280;37799;52.390;6.136;2023-05-20T06:07:44;102484.97;;;17.62;100.00
37202;BME280;37799;52.390;6.136;2023-05-20T06:10:10;102494.53;;;17.63;100.00
37202;BME280;37799;52.390;6.136;2023-05-20T06:12:35;102489.34;;;18.19;100.00
37202;BME280;37799;52.390;6.136;2023-05-20T06:15:00;102495.84;;;18.64;100.00
37202;BME280;37799;52.390;6.136;2023-05-20T06:17:26;102495.38;;;18.77;97.92
37202;BME280;37799;52.390;6.136;2023-05-20T06:19:51;102495.78;;;18.65;96.27
37202;BME280;37799;52.390;6.136;2023-05-20T06:22:16;102488.00;;;18.62;94.82
37202;BME280;37799;52.390;6.136;2023-05-20T06:24:42;102495.94;;;18.85;96.02
37202;BME280;37799;52.390;6.136;2023-05-20T06:27:07;102499.50;;;18.84;93.09
37202;BME280;37799;52.390;6.136;2023-05-20T06:29:32;102491.38;;;18.92;94.65
37202;BME280;37799;52.390;6.136;2023-05-20T06:31:58;102496.69;;;19.14;92.96
37202;BME280;37799;52.390;6.136;2023-05-20T06:34:23;102485.63;;;19.06;91.20
37202;BME280;37799;52.390;6.136;2023-05-20T06:36:49;102483.50;;;19.17;91.73
37202;BME280;37799;52.390;6.136;2023-05-20T06:39:14;102486.47;;;19.31;91.74
37202;BME280;37799;52.390;6.136;2023-05-20T06:41:39;102479.34;;;19.82;88.33
37202;BME280;37799;52.390;6.136;2023-05-20T06:44:05;102478.72;;;19.75;85.54
37202;BME280;37799;52.390;6.136;2023-05-20T06:46:32;102480.72;;;20.14;85.68
37202;BME280;37799;52.390;6.136;2023-05-20T06:48:57;102470.31;;;20.32;86.25
37202;BME280;37799;52.390;6.136;2023-05-20T06:51:23;102472.00;;;20.55;82.39
37202;BME280;37799;52.390;6.136;2023-05-20T06:53:48;102473.19;;;20.69;77.04
37202;BME280;37799;52.390;6.136;2023-05-20T06:56:13;102472.56;;;20.64;74.92
37202;BME280;37799;52.390;6.136;2023-05-20T06:58:39;102467.16;;;20.67;74.67
37202;BME280;37799;52.390;6.136;2023-05-20T07:01:04;102466.06;;;20.72;71.55
37202;BME280;37799;52.390;6.136;2023-05-20T07:03:29;102464.00;;;20.79;71.88
37202;BME280;37799;52.390;6.136;2023-05-20T07:05:55;102459.19;;;21.29;71.77
37202;BME280;37799;52.390;6.136;2023-05-20T07:08:20;102457.13;;;21.15;67.85
37202;BME280;37799;52.390;6.136;2023-05-20T07:10:46;102458.47;;;21.26;68.73
37202;BME280;37799;52.390;6.136;2023-05-20T07:13:11;102460.66;;;21.35;63.32
37202;BME280;37799;52.390;6.136;2023-05-20T07:15:37;102455.84;;;21.44;63.13
37202;BME280;37799;52.390;6.136;2023-05-20T07:18:02;102453.41;;;21.59;65.88
37202;BME280;37799;52.390;6.136;2023-05-20T07:20:27;102446.09;;;21.65;61.87
37202;BME280;37799;52.390;6.136;2023-05-20T07:22:53;102454.00;;;21.65;61.19
37202;BME280;37799;52.390;6.136;2023-05-20T07:25:18;102458.50;;;21.63;63.32
37202;BME280;37799;52.390;6.136;2023-05-20T07:27:43;102456.69;;;21.83;60.76
37202;BME280;37799;52.390;6.136;2023-05-20T07:30:09;102455.75;;;21.84;58.95
37202;BME280;37799;52.390;6.136;2023-05-20T07:32:35;102450.00;;;21.57;59.82
37202;BME280;37799;52.390;6.136;2023-05-20T07:35:00;102452.59;;;21.94;59.91
37202;BME280;37799;52.390;6.136;2023-05-20T07:37:25;102441.28;;;21.92;58.59
37202;BME280;37799;52.390;6.136;2023-05-20T07:39:51;102440.94;;;21.81;56.77
37202;BME280;37799;52.390;6.136;2023-05-20T07:42:17;102444.84;;;21.91;56.96
37202;BME280;37799;52.390;6.136;2023-05-20T07:44:42;102445.56;;;21.95;57.67
37202;BME280;37799;52.390;6.136;2023-05-20T07:47:08;102443.06;;;21.92;57.92
37202;BME280;37799;52.390;6.136;2023-05-20T07:49:33;102440.56;;;22.07;58.36
37202;BME280;37799;52.390;6.136;2023-05-20T07:51:58;102434.44;;;22.24;57.31
37202;BME280;37799;52.390;6.136;2023-05-20T07:54:24;102441.91;;;22.51;54.83
37202;BME280;37799;52.390;6.136;2023-05-20T07:56:49;102441.16;;;22.83;53.91
37202;BME280;37799;52.390;6.136;2023-05-20T07:59:15;102433.84;;;22.71;50.36
37202;BME280;37799;52.390;6.136;2023-05-20T08:01:40;102433.69;;;22.40;52.68
37202;BME280;37799;52.390;6.136;2023-05-20T08:04:06;102426.53;;;22.07;53.76
37202;BME280;37799;52.390;6.136;2023-05-20T08:06:31;102430.41;;;21.81;56.00
37202;BME280;37799;52.390;6.136;2023-05-20T08:08:57;102419.72;;;21.65;55.05
37202;BME280;37799;52.390;6.136;2023-05-20T08:11:23;102423.53;;;21.96;55.05
37202;BME280;37799;52.390;6.136;2023-05-20T08:13:48;102418.78;;;22.38;56.88
37202;BME280;37799;52.390;6.136;2023-05-20T08:16:14;102418.31;;;22.65;52.30
37202;BME280;37799;52.390;6.136;2023-05-20T08:18:40;102415.53;;;22.33;51.29
37202;BME280;37799;52.390;6.136;2023-05-20T08:21:05;102417.88;;;22.57;53.20
37202;BME280;37799;52.390;6.136;2023-05-20T08:23:34;102412.44;;;22.43;49.37
37202;BME280;37799;52.390;6.136;2023-05-20T08:26:00;102412.53;;;22.05;51.71
37202;BME280;37799;52.390;6.136;2023-05-20T08:28:29;102415.13;;;22.24;49.92
37202;BME280;37799;52.390;6.136;2023-05-20T08:30:54;102416.59;;;22.12;51.26
37202;BME280;37799;52.390;6.136;2023-05-20T08:33:21;102403.63;;;22.25;52.65
37202;BME280;37799;52.390;6.136;2023-05-20T08:35:47;102416.06;;;22.92;51.02
37202;BME280;37799;52.390;6.136;2023-05-20T08:38:12;102409.91;;;23.40;48.90
37202;BME280;37799;52.390;6.136;2023-05-20T08:40:37;102416.47;;;23.33;46.21
37202;BME280;37799;52.390;6.136;2023-05-20T08:43:03;102416.22;;;23.22;47.14
37202;BME280;37799;52.390;6.136;2023-05-20T08:45:31;102412.63;;;23.23;46.14
37202;BME280;37799;52.390;6.136;2023-05-20T08:47:57;102413.78;;;23.02;45.52
37202;BME280;37799;52.390;6.136;2023-05-20T08:50:22;102406.38;;;22.58;45.93
37202;BME280;37799;52.390;6.136;2023-05-20T08:52:48;102400.44;;;22.87;48.71
37202;BME280;37799;52.390;6.136;2023-05-20T08:55:17;102399.59;;;23.51;47.98
37202;BME280;37799;52.390;6.136;2023-05-20T08:57:49;102406.25;;;23.90;44.52
37202;BME280;37799;52.390;6.136;2023-05-20T09:00:16;102393.69;;;24.39;44.00
37202;BME280;37799;52.390;6.136;2023-05-20T09:02:44;102404.53;;;23.89;42.22
37202;BME280;37799;52.390;6.136;2023-05-20T09:05:10;102396.13;;;24.12;43.51
37202;BME280;37799;52.390;6.136;2023-05-20T09:07:36;102401.50;;;23.65;41.37
37202;BME280;37799;52.390;6.136;2023-05-20T09:10:01;102387.50;;;23.47;42.04
37202;BME280;37799;52.390;6.136;2023-05-20T09:12:26;102383.28;;;23.28;43.12
37202;BME280;37799;52.390;6.136;2023-05-20T09:14:52;102398.75;;;23.51;42.44
37202;BME280;37799;52.390;6.136;2023-05-20T09:17:17;102391.81;;;23.17;42.84
37202;BME280;37799;52.390;6.136;2023-05-20T09:19:42;102387.03;;;23.08;44.63
37202;BME280;37799;52.390;6.136;2023-05-20T09:22:08;102393.13;;;23.57;43.85
37202;BME280;37799;52.390;6.136;2023-05-20T09:24:33;102385.94;;;23.43;44.41
37202;BME280;37799;52.390;6.136;2023-05-20T09:26:58;102379.66;;;23.62;41.39
37202;BME280;37799;52.390;6.136;2023-05-20T09:29:24;102385.72;;;23.64;43.15
37202;BME280;37799;52.390;6.136;2023-05-20T09:31:50;102376.06;;;23.31;40.84
37202;BME280;37799;52.390;6.136;2023-05-20T09:34:16;102376.84;;;23.65;44.17
37202;BME280;37799;52.390;6.136;2023-05-20T09:36:48;102371.44;;;23.82;40.96
37202;BME280;37799;52.390;6.136;2023-05-20T09:39:15;102353.03;;;23.65;43.24
37202;BME280;37799;52.390;6.136;2023-05-20T09:41:51;102371.09;;;23.57;43.01
37202;BME280;37799;52.390;6.136;2023-05-20T09:44:20;102374.78;;;23.70;41.12
37202;BME280;37799;52.390;6.136;2023-05-20T09:46:46;102363.78;;;23.77;41.31
37202;BME280;37799;52.390;6.136;2023-05-20T09:49:12;102355.94;;;23.76;41.81
37202;BME280;37799;52.390;6.136;2023-05-20T09:51:39;102358.50;;;23.46;41.11
37202;BME280;37799;52.390;6.136;2023-05-20T09:54:06;102354.03;;;23.15;40.49
37202;BME280;37799;52.390;6.136;2023-05-20T09:56:34;102353.00;;;23.02;41.31
37202;BME280;37799;52.390;6.136;2023-05-20T09:59:01;102356.09;;;23.41;41.88
37202;BME280;37799;52.390;6.136;2023-05-20T10:01:26;102354.84;;;23.94;41.81
37202;BME280;37799;52.390;6.136;2023-05-20T10:03:52;102351.16;;;23.35;41.11
37202;BME280;37799;52.390;6.136;2023-05-20T10:06:41;102343.97;;;23.85;40.11
37202;BME280;37799;52.390;6.136;2023-05-20T10:09:20;102346.72;;;23.51;40.33
37202;BME280;37799;52.390;6.136;2023-05-20T10:11:57;102342.78;;;23.27;39.04
37202;BME280;37799;52.390;6.136;2023-05-20T10:17:29;102332.97;;;23.76;39.22
37202;BME280;37799;52.390;6.136;2023-05-20T10:19:59;102327.91;;;24.18;41.61
37202;BME280;37799;52.390;6.136;2023-05-20T10:22:26;102325.81;;;24.38;40.19
37202;BME280;37799;52.390;6.136;2023-05-20T10:25:06;102321.63;;;23.74;40.88
37202;BME280;37799;52.390;6.136;2023-05-20T10:27:42;102323.75;;;24.13;40.97
37202;BME280;37799;52.390;6.136;2023-05-20T10:30:15;102308.31;;;24.64;39.89
37202;BME280;37799;52.390;6.136;2023-05-20T10:32:48;102315.69;;;25.02;38.23
37202;BME280;37799;52.390;6.136;2023-05-20T10:35:20;102308.50;;;24.61;38.42
37202;BME280;37799;52.390;6.136;2023-05-20T10:37:46;102312.84;;;24.48;39.37
37202;BME280;37799;52.390;6.136;2023-05-20T10:40:13;102310.88;;;24.22;39.05
37202;BME280;37799;52.390;6.136;2023-05-20T10:42:39;102301.88;;;24.68;39.37
37202;BME280;37799;52.390;6.136;2023-05-20T10:45:05;102304.72;;;24.65;38.47
37202;BME280;37799;52.390;6.136;2023-05-20T10:47:31;102299.25;;;23.34;39.08
37202;BME280;37799;52.390;6.136;2023-05-20T10:49:57;102296.09;;;22.96;40.34
37202;BME280;37799;52.390;6.136;2023-05-20T10:52:23;102292.13;;;23.50;44.17
37202;BME280;37799;52.390;6.136;2023-05-20T10:54:59;102287.00;;;23.93;40.09
37202;BME280;37799;52.390;6.136;2023-05-20T10:57:26;102293.53;;;23.58;41.74
37202;BME280;37799;52.390;6.136;2023-05-20T10:59:52;102283.31;;;23.96;40.87
37202;BME280;37799;52.390;6.136;2023-05-20T11:02:18;102281.81;;;24.79;41.17
37202;BME280;37799;52.390;6.136;2023-05-20T11:04:47;102288.72;;;25.76;39.41
37202;BME280;37799;52.390;6.136;2023-05-20T11:07:32;102290.59;;;26.65;36.80
37202;BME280;37799;52.390;6.136;2023-05-20T11:09:58;102287.25;;;25.18;36.15
37202;BME280;37799;52.390;6.136;2023-05-20T11:12:24;102279.72;;;24.69;37.80
37202;BME280;37799;52.390;6.136;2023-05-20T11:14:50;102274.38;;;23.52;38.30
37202;BME280;37799;52.390;6.136;2023-05-20T11:17:17;102254.66;;;22.97;40.42
37202;BME280;37799;52.390;6.136;2023-05-20T11:19:43;102265.50;;;22.59;41.78
37202;BME280;37799;52.390;6.136;2023-05-20T11:22:08;102269.94;;;22.58;41.46
37202;BME280;37799;52.390;6.136;2023-05-20T11:24:33;102265.03;;;22.00;43.30
37202;BME280;37799;52.390;6.136;2023-05-20T11:27:00;102264.72;;;22.24;43.16
37202;BME280;37799;52.390;6.136;2023-05-20T11:29:26;102266.38;;;22.09;44.57
37202;BME280;37799;52.390;6.136;2023-05-20T11:31:53;102262.16;;;22.05;43.39
37202;BME280;37799;52.390;6.136;2023-05-20T11:34:20;102261.47;;;21.84;44.36
37202;BME280;37799;52.390;6.136;2023-05-20T11:36:46;102259.69;;;21.50;44.63
37202;BME280;37799;52.390;6.136;2023-05-20T11:39:12;102268.47;;;21.32;46.32
37202;BME280;37799;52.390;6.136;2023-05-20T11:41:41;102257.53;;;21.75;44.89
37202;BME280;37799;52.390;6.136;2023-05-20T11:44:09;102255.03;;;21.55;44.92
37202;BME280;37799;52.390;6.136;2023-05-20T11:46:40;102242.38;;;21.96;43.17
37202;BME280;37799;52.390;6.136;2023-05-20T11:49:06;102235.97;;;22.19;44.64
37202;BME280;37799;52.390;6.136;2023-05-20T11:51:32;102245.22;;;22.44;44.28
37202;BME280;37799;52.390;6.136;2023-05-20T11:54:00;102237.53;;;22.39;45.30
37202;BME280;37799;52.390;6.136;2023-05-20T11:56:31;102240.31;;;22.36;44.02
37202;BME280;37799;52.390;6.136;2023-05-20T11:58:58;102236.09;;;22.98;44.52
37202;BME280;37799;52.390;6.136;2023-05-20T12:01:24;102226.28;;;23.62;41.20
37202;BME280;37799;52.390;6.136;2023-05-20T12:03:49;102230.00;;;24.32;41.70
37202;BME280;37799;52.390;6.136;2023-05-20T12:06:16;102220.94;;;24.50;39.10
37202;BME280;37799;52.390;6.136;2023-05-20T12:08:41;102223.00;;;25.15;39.36
37202;BME280;37799;52.390;6.136;2023-05-20T12:11:06;102226.44;;;25.69;38.71
37202;BME280;37799;52.390;6.136;2023-05-20T12:13:32;102221.91;;;25.44;36.25
37202;BME280;37799;52.390;6.136;2023-05-20T12:15:57;102215.50;;;25.74;37.69
37202;BME280;37799;52.390;6.136;2023-05-20T12:18:22;102217.94;;;25.37;37.57
37202;BME280;37799;52.390;6.136;2023-05-20T12:20:48;102208.00;;;25.41;37.79
37202;BME280;37799;52.390;6.136;2023-05-20T12:23:13;102213.84;;;25.46;37.74
37202;BME280;37799;52.390;6.136;2023-05-20T12:25:38;102207.31;;;25.24;36.98
37202;BME280;37799;52.390;6.136;2023-05-20T12:28:03;102216.63;;;25.57;38.52
37202;BME280;37799;52.390;6.136;2023-05-20T12:30:29;102212.66;;;25.50;38.32
37202;BME280;37799;52.390;6.136;2023-05-20T12:32:55;102217.63;;;25.69;35.55
37202;BME280;37799;52.390;6.136;2023-05-20T12:35:25;102207.31;;;25.24;35.74
37202;BME280;37799;52.390;6.136;2023-05-20T12:37:59;102202.94;;;24.55;35.77
37202;BME280;37799;52.390;6.136;2023-05-20T12:40:25;102187.91;;;24.27;37.81
37202;BME280;37799;52.390;6.136;2023-05-20T12:42:51;102186.31;;;24.39;38.84
37202;BME280;37799;52.390;6.136;2023-05-20T12:45:16;102200.28;;;24.55;37.13